METAR AND TAF INFORMATION
METAR FOR UADD
ADDS - METARS form results

(2123 UTC 26 March 2019)
Data provider http://aviationweather.gov/metar/data/
 
METAR text: UADD 262100Z 17003MPS 9999 SCT050CB OVC100 14/07 Q1014 R13/0///65 NOSIG RMK QFE704/0938
Conditions at: UADD (TARAZ , KZ) observed 2100 UTC 26 March 2019
Temperature: 14.0°C (57°F)
Dewpoint: 7.0°C (45°F) [RH = 63%]
Pressure (altimeter): 29.94 inches Hg (1014.0 mb)
Winds: from the S (170 degrees) at 7 MPH (6 knots; 3.1 m/s)
Visibility: 6 or more miles (10+ km)
Ceiling: 10000 feet AGL
Clouds: scattered clouds at 5000 feet AGL
overcast cloud deck at 10000 feet AGL
Weather: no significant weather observed at this time

METAR text: UADD 262030Z 15004MPS 9999 SCT050CB OVC100 15/06 Q1014 R13/0///65 NOSIG RMK QFE704/0938
Conditions at: UADD (TARAZ , KZ) observed 2030 UTC 26 March 2019
Temperature: 15.0°C (59°F)
Dewpoint: 6.0°C (43°F) [RH = 55%]
Pressure (altimeter): 29.94 inches Hg (1014.0 mb)
Winds: from the SSE (150 degrees) at 9 MPH (8 knots; 4.1 m/s)
Visibility: 6 or more miles (10+ km)
Ceiling: 10000 feet AGL
Clouds: scattered clouds at 5000 feet AGL
overcast cloud deck at 10000 feet AGL
Weather: no significant weather observed at this time

Forecast for: UADD (TARAZ , KZ)
Text: TAF UADD 262000Z 2621/2706 16005G10MPS 9999 -SHRA BKN050CB OVC100
Forecast period: 2100 UTC 26 March 2019 to 0600 UTC 27 March 2019
Forecast type: FROM: standard forecast or significant change
Winds: from the SSE (160 degrees) at 12 MPH (10 knots; 5.1 m/s)
gusting to 22 MPH (19 knots; 9.8 m/s)
Visibility: 6 or more miles 10+ km)
Ceiling: 5000 feet AGL
Clouds: broken clouds at 5000 feet AGL
overcast cloud deck at 10000 feet AGL
Weather: -SHRA  (light rain showers)

 AIRPORT MAP

 RUNWAY INFORMATION

 AIRPORT FREQUENCIES
Type APP Name APP Frequency 122.1 MHZ
Type TWR Name TWR Frequency 122.1 MHZ

 AIRPORT NEAR NAVIGATION AIDS
Type NDB Name Taraz Frequency 103 KHZ
Type NDB Name Taraz Frequency 103 KHZ



2018 Air Astana Virtual Airline